Sao Martinho, Brazil
Current Conditions -  °F | °C
As of 4:00 PM on Saturday 25 Oct 2014 (Local Time) from SBCH Reporting Station
Few Clouds Few Clouds  
Wind Chill: 88°   Ceiling: Unl
Heat Index: 88°   Visibility: 6mi
Dew Point: 61°   Wind: 13mph
Humidity: 40%   Direction: 270°W
Pressure: 29.88"   Gusts: NA
Location:  27.71°S, 53.97°W
Report Text: SBCH 251800Z 27011KT 9999 FEW025TCU 31/16 Q1012
Loading
Personal Weather Stations






























Interactive Weather Map
Tropical Storm Tracking
New forecast layout! Learn more

10-Day Weather Forecast

Advertisements
Track Severe Weather on mobile